Avisos AEMET Campiña SevillanaSin Avisos+ INFO
Sevilla, Andalucía, España
Idioma: es English Français Deutsch Italiano Português Español
 

Informes METAR

 

LEZL - Sevilla, Spain
Distancia de la estación: ENE 8km
Actualización: 03/10/2023 16:00
Despejado
Despejado
 Viento de O
Viento: O 6 km/h
Temperatura: 33°C
Rocío: 12°C
Humedad: 28%
Barómetro: 1020 hPa
Resumen: Despejado
Visibilidad: mayor de 10 km
2023/10/03 14:00 LEZL 031400Z 27003KT CAVOK 33/12 Q1020 NOSIG
LEMO - Morón, Spain
Distancia de la estación: SE 43km
Actualización: 03/10/2023 16:00
Despejado
Despejado
 Viento de variable
Viento: variable 6 km/h
Temperatura: 34°C
Rocío: 8°C
Humedad: 20%
Barómetro: 1020 hPa
Resumen: Despejado
Visibilidad: mayor de 10 km
2023/10/03 14:00 LEMO 031400Z VRB03KT CAVOK 34/08 Q1020 NOSIG
LEJR - Jeréz, Spain
Distancia de la estación: S 71km
Actualización: 03/10/2023 16:00
Despejado
Despejado
 Viento de variable
Viento: variable 4 km/h
Temperatura: 35°C
Rocío: 11°C
Humedad: 23%
Barómetro: 1020 hPa
Resumen: Despejado
Visibilidad: mayor de 10 km
2023/10/03 14:00 LEJR 031400Z VRB02KT CAVOK 35/11 Q1020
 
LERT - Rota, Spain
Distancia de la estación: SSO 89km
Actualización: 03/10/2023 16:00
Despejado
Despejado
 Viento de variable
Viento: variable 11 km/h
Temperatura: 31°C
Rocío: 15°C
Humedad: 38%
Barómetro: 1020 hPa
Resumen: Despejado
Visibilidad: mayor de 10 km
2023/10/03 14:00 LERT 031400Z VRB06KT CAVOK 31/15 Q1020 NOSIG
LEMG - Málaga, Spain
Distancia de la estación: ESE 157km
Actualización: 03/10/2023 16:00
Despejado
Despejado
 Viento de SE
Viento: SE 15 km/h
Temperatura: 26°C
Rocío: 17°C
Humedad: 58%
Barómetro: 1022 hPa
Resumen: Despejado
Visibilidad: mayor de 10 km
2023/10/03 14:00 LEMG 031400Z 14008KT CAVOK 26/17 Q1022 NOSIG
LEBA - Córdoba, Spain
Distancia de la estación: ENE 115km
Actualización: 03/10/2023 16:00
Despejado
Despejado
 Viento de OSO
Viento: OSO 6 km/h
Temperatura: 34°C
Rocío: 8°C
Humedad: 20%
Barómetro: 1020 hPa
Resumen: Despejado
Visibilidad: mayor de 10 km
2023/10/03 14:00 LEBA 031400Z 25003KT CAVOK 34/08 Q1020
 
LEGR - Granada, Spain
Distancia de la estación: E 198km
Actualización: 03/10/2023 16:00
Despejado
Despejado
 Viento de variable
Viento: variable 7 km/h
Temperatura: 34°C
Rocío: 5°C
Humedad: 16%
Barómetro: 1023 hPa
Resumen: Despejado
Visibilidad: mayor de 10 km
2023/10/03 14:00 LEGR 031400Z VRB04KT CAVOK 34/05 Q1023
LEAM - Almería, Spain
Distancia de la estación: E 326km
Actualización: 03/10/2023 16:00
Poco nuboso
Poco nuboso
 Viento de SSO
Viento: SSO 11 km/h
Temperatura: 26°C
Rocío: 20°C
Humedad: 70%
Barómetro: 1022 hPa
Nubes: Poco nuboso
Visibilidad: 10 km
Detalles de las nubes: Poco nuboso 914 m
2023/10/03 14:00 LEAM 031400Z 20006KT 160V230 9999 FEW030 26/20 Q1022
LEMD - Madrid/Barajas, Spain
Distancia de la estación: NNE 402km
Actualización: 03/10/2023 16:00
Despejado
Despejado
 Viento de calm
Viento: Calma
Temperatura: 29°C
Rocío: 8°C
Humedad: 27%
Barómetro: 1024 hPa
Resumen: Despejado
Visibilidad: mayor de 10 km
2023/10/03 14:00 LEMD 031400Z 00000KT CAVOK 29/08 Q1024 NOSIG
 
LEVD - Valladolid, Spain
Distancia de la estación: N 492km
Actualización: 03/10/2023 16:00
Despejado
Despejado
 Viento de SO
Viento: SO 6 km/h
Temperatura: 27°C
Rocío: 9°C
Humedad: 32%
Barómetro: 1026 hPa
Resumen: Despejado
Visibilidad: mayor de 10 km
2023/10/03 14:00 LEVD 031400Z 23003KT CAVOK 27/09 Q1026
LEBL - Barcelona, Spain
Distancia de la estación: NE 816km
Actualización: 03/10/2023 16:00
Poco nuboso
Poco nuboso
 Viento de SE
Viento: SE 11 km/h
Temperatura: 25°C
Rocío: 20°C
Humedad: 74%
Barómetro: 1024 hPa
Nubes: Poco nuboso
Visibilidad: 10 km
Detalles de las nubes: Poco nuboso 762 m
2023/10/03 14:00 LEBL 031400Z 14006KT 9999 FEW025 25/20 Q1024 NOSIG
LEVC - Valencia, Spain
Distancia de la estación: ENE 535km
Actualización: 03/10/2023 16:00
Poco nuboso
Poco nuboso
 Viento de ESE
Viento: ESE 15 km/h
Temperatura: 27°C
índice de calor: 28°C
Rocío: 19°C
Humedad: 62%
Barómetro: 1023 hPa
Nubes: Poco nuboso
Visibilidad: 10 km
Detalles de las nubes: Poco nuboso 1067 m
2023/10/03 14:00 LEVC 031400Z 12008KT 090V170 9999 FEW035 27/19 Q1023 NOSIG